sensor_id;sensor_type;location;lat;lon;timestamp;temperature;humidity
1025;DHT22;501;48.214;11.350;2023-04-05T00:01:26;0.50;31.60
1025;DHT22;501;48.214;11.350;2023-04-05T00:03:54;0.50;31.80
1025;DHT22;501;48.214;11.350;2023-04-05T00:06:20;0.50;32.00
1025;DHT22;501;48.214;11.350;2023-04-05T00:11:20;0.50;31.90
1025;DHT22;501;48.214;11.350;2023-04-05T00:13:47;0.50;32.10
1025;DHT22;501;48.214;11.350;2023-04-05T00:16:13;0.50;32.10
1025;DHT22;501;48.214;11.350;2023-04-05T00:18:39;0.50;32.00
1025;DHT22;501;48.214;11.350;2023-04-05T00:21:10;0.40;31.90
1025;DHT22;501;48.214;11.350;2023-04-05T00:23:39;0.40;31.90
1025;DHT22;501;48.214;11.350;2023-04-05T00:26:06;0.40;32.40
1025;DHT22;501;48.214;11.350;2023-04-05T00:28:32;0.40;32.30
1025;DHT22;501;48.214;11.350;2023-04-05T00:30:58;0.30;32.00
1025;DHT22;501;48.214;11.350;2023-04-05T00:33:23;0.40;32.10
1025;DHT22;501;48.214;11.350;2023-04-05T00:35:49;0.30;31.90
1025;DHT22;501;48.214;11.350;2023-04-05T00:38:14;0.30;32.10
1025;DHT22;501;48.214;11.350;2023-04-05T00:40:41;0.30;32.50
1025;DHT22;501;48.214;11.350;2023-04-05T00:43:06;0.30;32.10
1025;DHT22;501;48.214;11.350;2023-04-05T00:45:32;0.30;32.20
1025;DHT22;501;48.214;11.350;2023-04-05T00:47:58;0.30;32.30
1025;DHT22;501;48.214;11.350;2023-04-05T00:50:23;0.20;32.20
1025;DHT22;501;48.214;11.350;2023-04-05T00:52:49;0.20;32.40
1025;DHT22;501;48.214;11.350;2023-04-05T00:55:16;0.20;32.90
1025;DHT22;501;48.214;11.350;2023-04-05T00:57:42;0.20;32.60
1025;DHT22;501;48.214;11.350;2023-04-05T01:00:10;0.20;32.80
1025;DHT22;501;48.214;11.350;2023-04-05T01:02:49;0.10;32.80
1025;DHT22;501;48.214;11.350;2023-04-05T01:08:44;0.10;33.50
1025;DHT22;501;48.214;11.350;2023-04-05T01:10:50;0.10;33.50
1025;DHT22;501;48.214;11.350;2023-04-05T01:13:19;0.10;33.70
1025;DHT22;501;48.214;11.350;2023-04-05T01:15:45;0.10;33.70
1025;DHT22;501;48.214;11.350;2023-04-05T01:18:12;0.10;33.80
1025;DHT22;501;48.214;11.350;2023-04-05T01:20:45;0.10;33.70
1025;DHT22;501;48.214;11.350;2023-04-05T01:28:57;0.00;33.00
1025;DHT22;501;48.214;11.350;2023-04-05T01:31:44;0.00;33.20
1025;DHT22;501;48.214;11.350;2023-04-05T01:34:41;0.00;33.00
1025;DHT22;501;48.214;11.350;2023-04-05T01:37:15;0.00;33.20
1025;DHT22;501;48.214;11.350;2023-04-05T01:39:42;0.00;33.70
1025;DHT22;501;48.214;11.350;2023-04-05T01:42:11;0.00;33.80
1025;DHT22;501;48.214;11.350;2023-04-05T01:44:37;0.00;34.30
1025;DHT22;501;48.214;11.350;2023-04-05T01:47:03;0.00;34.60
1025;DHT22;501;48.214;11.350;2023-04-05T01:49:28;0.00;34.30
1025;DHT22;501;48.214;11.350;2023-04-05T01:51:54;0.00;34.40
1025;DHT22;501;48.214;11.350;2023-04-05T01:54:19;0.00;34.10
1025;DHT22;501;48.214;11.350;2023-04-05T01:56:45;0.00;33.90
1025;DHT22;501;48.214;11.350;2023-04-05T01:59:11;0.00;34.00
1025;DHT22;501;48.214;11.350;2023-04-05T02:01:36;0.00;34.20
1025;DHT22;501;48.214;11.350;2023-04-05T02:04:02;0.00;34.50
1025;DHT22;501;48.214;11.350;2023-04-05T02:06:28;0.00;34.70
1025;DHT22;501;48.214;11.350;2023-04-05T02:08:55;0.00;34.80
1025;DHT22;501;48.214;11.350;2023-04-05T02:11:20;0.00;35.00
1025;DHT22;501;48.214;11.350;2023-04-05T02:13:46;0.00;34.80
1025;DHT22;501;48.214;11.350;2023-04-05T02:16:12;0.00;34.60
1025;DHT22;501;48.214;11.350;2023-04-05T02:18:37;0.00;34.60
1025;DHT22;501;48.214;11.350;2023-04-05T02:21:04;0.00;34.50
1025;DHT22;501;48.214;11.350;2023-04-05T02:23:31;0.00;34.10
1025;DHT22;501;48.214;11.350;2023-04-05T02:25:57;0.00;34.30
1025;DHT22;501;48.214;11.350;2023-04-05T02:28:23;0.00;33.80
1025;DHT22;501;48.214;11.350;2023-04-05T02:30:49;0.10;34.10
1025;DHT22;501;48.214;11.350;2023-04-05T02:33:14;0.10;34.10
1025;DHT22;501;48.214;11.350;2023-04-05T02:35:40;0.10;34.10
1025;DHT22;501;48.214;11.350;2023-04-05T02:38:06;0.10;34.10
1025;DHT22;501;48.214;11.350;2023-04-05T02:40:32;0.10;33.60
1025;DHT22;501;48.214;11.350;2023-04-05T02:42:58;0.10;33.20
1025;DHT22;501;48.214;11.350;2023-04-05T02:45:24;0.10;33.50
1025;DHT22;501;48.214;11.350;2023-04-05T02:47:52;0.10;33.60
1025;DHT22;501;48.214;11.350;2023-04-05T02:50:18;0.10;34.10
1025;DHT22;501;48.214;11.350;2023-04-05T02:52:45;0.10;34.90
1025;DHT22;501;48.214;11.350;2023-04-05T02:55:12;0.10;35.40
1025;DHT22;501;48.214;11.350;2023-04-05T02:57:38;0.00;35.40
1025;DHT22;501;48.214;11.350;2023-04-05T03:00:04;0.00;35.50
1025;DHT22;501;48.214;11.350;2023-04-05T03:02:32;0.00;35.20
1025;DHT22;501;48.214;11.350;2023-04-05T03:04:58;0.10;35.70
1025;DHT22;501;48.214;11.350;2023-04-05T03:07:26;0.10;36.20
1025;DHT22;501;48.214;11.350;2023-04-05T03:09:52;0.10;36.50
1025;DHT22;501;48.214;11.350;2023-04-05T03:12:18;0.10;36.50
1025;DHT22;501;48.214;11.350;2023-04-05T03:14:44;0.10;36.70
1025;DHT22;501;48.214;11.350;2023-04-05T03:17:11;0.00;36.50
1025;DHT22;501;48.214;11.350;2023-04-05T03:19:36;0.00;36.70
1025;DHT22;501;48.214;11.350;2023-04-05T03:22:03;0.00;36.70
1025;DHT22;501;48.214;11.350;2023-04-05T03:24:28;0.10;37.30
1025;DHT22;501;48.214;11.350;2023-04-05T03:26:55;0.00;37.30
1025;DHT22;501;48.214;11.350;2023-04-05T03:29:21;0.00;37.00
1025;DHT22;501;48.214;11.350;2023-04-05T03:31:47;0.00;36.80
1025;DHT22;501;48.214;11.350;2023-04-05T03:34:13;0.00;36.70
1025;DHT22;501;48.214;11.350;2023-04-05T03:36:39;0.00;36.70
1025;DHT22;501;48.214;11.350;2023-04-05T03:39:12;0.00;36.90
1025;DHT22;501;48.214;11.350;2023-04-05T03:41:38;0.00;36.90
1025;DHT22;501;48.214;11.350;2023-04-05T03:44:04;0.00;36.80
1025;DHT22;501;48.214;11.350;2023-04-05T03:46:30;0.00;36.70
1025;DHT22;501;48.214;11.350;2023-04-05T03:48:57;0.00;37.30
1025;DHT22;501;48.214;11.350;2023-04-05T03:51:23;-0.10;36.90
1025;DHT22;501;48.214;11.350;2023-04-05T03:53:52;-0.10;37.30
1025;DHT22;501;48.214;11.350;2023-04-05T03:56:18;-0.10;37.10
1025;DHT22;501;48.214;11.350;2023-04-05T03:58:44;-0.10;36.90
1025;DHT22;501;48.214;11.350;2023-04-05T04:01:10;-0.10;37.20
1025;DHT22;501;48.214;11.350;2023-04-05T04:03:36;-0.10;37.40
1025;DHT22;501;48.214;11.350;2023-04-05T04:06:02;-0.10;37.40
1025;DHT22;501;48.214;11.350;2023-04-05T04:08:28;-0.20;37.30
1025;DHT22;501;48.214;11.350;2023-04-05T04:10:54;-0.20;37.30
1025;DHT22;501;48.214;11.350;2023-04-05T04:13:19;-0.20;37.70
1025;DHT22;501;48.214;11.350;2023-04-05T04:15:45;-0.20;38.00
1025;DHT22;501;48.214;11.350;2023-04-05T04:18:11;-0.20;37.80
1025;DHT22;501;48.214;11.350;2023-04-05T04:20:37;-0.20;37.60
1025;DHT22;501;48.214;11.350;2023-04-05T04:23:03;-0.30;37.60
1025;DHT22;501;48.214;11.350;2023-04-05T04:25:29;-0.20;37.50
1025;DHT22;501;48.214;11.350;2023-04-05T04:27:55;-0.30;37.30
1025;DHT22;501;48.214;11.350;2023-04-05T04:30:20;-0.20;37.00
1025;DHT22;501;48.214;11.350;2023-04-05T04:32:47;-0.30;37.00
1025;DHT22;501;48.214;11.350;2023-04-05T04:35:16;-0.30;37.10
1025;DHT22;501;48.214;11.350;2023-04-05T04:37:46;-0.30;36.90
1025;DHT22;501;48.214;11.350;2023-04-05T04:40:15;-0.30;36.60
1025;DHT22;501;48.214;11.350;2023-04-05T04:42:44;-0.30;36.70
1025;DHT22;501;48.214;11.350;2023-04-05T04:45:16;-0.30;36.60
1025;DHT22;501;48.214;11.350;2023-04-05T04:47:43;-0.40;36.50
1025;DHT22;501;48.214;11.350;2023-04-05T04:50:09;-0.40;36.50
1025;DHT22;501;48.214;11.350;2023-04-05T04:52:37;-0.40;36.50
1025;DHT22;501;48.214;11.350;2023-04-05T04:55:03;-0.40;36.40
1025;DHT22;501;48.214;11.350;2023-04-05T04:57:28;-0.40;36.60
1025;DHT22;501;48.214;11.350;2023-04-05T04:59:54;-0.40;36.30
1025;DHT22;501;48.214;11.350;2023-04-05T05:02:24;-0.40;36.50
1025;DHT22;501;48.214;11.350;2023-04-05T05:04:49;-0.40;37.10
1025;DHT22;501;48.214;11.350;2023-04-05T05:07:16;-0.40;37.40
1025;DHT22;501;48.214;11.350;2023-04-05T05:09:42;-0.40;37.60
1025;DHT22;501;48.214;11.350;2023-04-05T05:12:08;-0.40;37.50
1025;DHT22;501;48.214;11.350;2023-04-05T05:14:33;-0.40;37.40
1025;DHT22;501;48.214;11.350;2023-04-05T05:16:59;-0.40;37.20
1025;DHT22;501;48.214;11.350;2023-04-05T05:19:25;-0.40;37.60
1025;DHT22;501;48.214;11.350;2023-04-05T05:21:51;-0.30;37.70
1025;DHT22;501;48.214;11.350;2023-04-05T05:24:18;-0.30;37.80
1025;DHT22;501;48.214;11.350;2023-04-05T05:26:44;-0.30;37.90
1025;DHT22;501;48.214;11.350;2023-04-05T05:29:10;-0.30;37.80
1025;DHT22;501;48.214;11.350;2023-04-05T05:31:35;-0.20;37.80
1025;DHT22;501;48.214;11.350;2023-04-05T05:34:01;-0.20;37.60
1025;DHT22;501;48.214;11.350;2023-04-05T05:36:27;-0.20;37.60
1025;DHT22;501;48.214;11.350;2023-04-05T05:38:53;-0.20;37.70
1025;DHT22;501;48.214;11.350;2023-04-05T05:41:19;-0.10;37.90
1025;DHT22;501;48.214;11.350;2023-04-05T05:43:46;-0.10;37.60
1025;DHT22;501;48.214;11.350;2023-04-05T05:46:12;0.00;38.20
1025;DHT22;501;48.214;11.350;2023-04-05T05:48:38;0.00;37.40
1025;DHT22;501;48.214;11.350;2023-04-05T05:51:03;0.10;37.40
1025;DHT22;501;48.214;11.350;2023-04-05T05:53:37;0.10;37.50
1025;DHT22;501;48.214;11.350;2023-04-05T05:56:03;0.10;37.50
1025;DHT22;501;48.214;11.350;2023-04-05T05:58:29;0.20;37.40
1025;DHT22;501;48.214;11.350;2023-04-05T06:00:55;0.20;37.50
1025;DHT22;501;48.214;11.350;2023-04-05T06:03:22;0.30;37.60
1025;DHT22;501;48.214;11.350;2023-04-05T06:05:55;0.30;37.40
1025;DHT22;501;48.214;11.350;2023-04-05T06:08:22;0.30;37.60
1025;DHT22;501;48.214;11.350;2023-04-05T06:10:49;0.30;37.50
1025;DHT22;501;48.214;11.350;2023-04-05T06:13:15;0.40;38.00
1025;DHT22;501;48.214;11.350;2023-04-05T06:15:45;0.40;37.80
1025;DHT22;501;48.214;11.350;2023-04-05T06:18:11;0.40;37.90
1025;DHT22;501;48.214;11.350;2023-04-05T06:20:37;0.40;38.30
1025;DHT22;501;48.214;11.350;2023-04-05T06:23:08;0.50;38.00
1025;DHT22;501;48.214;11.350;2023-04-05T06:25:34;0.50;38.10
1025;DHT22;501;48.214;11.350;2023-04-05T06:28:00;0.50;38.20
1025;DHT22;501;48.214;11.350;2023-04-05T06:30:26;0.50;38.20
1025;DHT22;501;48.214;11.350;2023-04-05T06:32:52;0.60;38.10
1025;DHT22;501;48.214;11.350;2023-04-05T06:35:22;0.60;37.90
1025;DHT22;501;48.214;11.350;2023-04-05T06:37:48;0.60;38.10
1025;DHT22;501;48.214;11.350;2023-04-05T06:40:14;0.60;37.80
1025;DHT22;501;48.214;11.350;2023-04-05T06:42:39;0.70;37.80
1025;DHT22;501;48.214;11.350;2023-04-05T06:45:05;0.80;37.40
1025;DHT22;501;48.214;11.350;2023-04-05T06:47:35;0.80;37.60
1025;DHT22;501;48.214;11.350;2023-04-05T06:50:02;0.90;37.90
1025;DHT22;501;48.214;11.350;2023-04-05T06:52:28;0.90;37.80
1025;DHT22;501;48.214;11.350;2023-04-05T06:54:54;1.00;37.60
1025;DHT22;501;48.214;11.350;2023-04-05T06:57:20;1.10;37.20
1025;DHT22;501;48.214;11.350;2023-04-05T06:59:46;1.10;37.40
1025;DHT22;501;48.214;11.350;2023-04-05T07:02:12;1.20;35.80
1025;DHT22;501;48.214;11.350;2023-04-05T07:04:38;1.30;35.50
1025;DHT22;501;48.214;11.350;2023-04-05T07:07:04;1.30;35.70
1025;DHT22;501;48.214;11.350;2023-04-05T07:09:33;1.30;35.20
1025;DHT22;501;48.214;11.350;2023-04-05T07:12:00;1.40;35.20
1025;DHT22;501;48.214;11.350;2023-04-05T07:14:29;1.40;35.20
1025;DHT22;501;48.214;11.350;2023-04-05T07:16:55;1.50;34.60
1025;DHT22;501;48.214;11.350;2023-04-05T07:19:21;1.50;34.90
1025;DHT22;501;48.214;11.350;2023-04-05T07:21:47;1.60;35.00
1025;DHT22;501;48.214;11.350;2023-04-05T07:24:13;1.70;34.70
1025;DHT22;501;48.214;11.350;2023-04-05T07:26:39;1.70;34.10
1025;DHT22;501;48.214;11.350;2023-04-05T07:29:05;1.80;34.30
1025;DHT22;501;48.214;11.350;2023-04-05T07:31:31;1.90;33.70
1025;DHT22;501;48.214;11.350;2023-04-05T07:33:59;2.00;32.80
1025;DHT22;501;48.214;11.350;2023-04-05T07:36:24;2.00;32.30
1025;DHT22;501;48.214;11.350;2023-04-05T07:38:54;2.10;32.30
1025;DHT22;501;48.214;11.350;2023-04-05T07:41:20;2.10;31.90
1025;DHT22;501;48.214;11.350;2023-04-05T07:43:45;2.20;31.60
1025;DHT22;501;48.214;11.350;2023-04-05T07:46:11;2.20;31.20
1025;DHT22;501;48.214;11.350;2023-04-05T07:48:37;2.20;30.90
1025;DHT22;501;48.214;11.350;2023-04-05T07:51:06;2.30;30.80
1025;DHT22;501;48.214;11.350;2023-04-05T07:53:33;2.30;30.30
1025;DHT22;501;48.214;11.350;2023-04-05T07:56:06;2.30;29.80
1025;DHT22;501;48.214;11.350;2023-04-05T07:58:33;2.40;29.90
1025;DHT22;501;48.214;11.350;2023-04-05T08:01:03;2.40;29.00
1025;DHT22;501;48.214;11.350;2023-04-05T08:03:29;2.50;29.20
1025;DHT22;501;48.214;11.350;2023-04-05T08:05:56;2.60;29.20
1025;DHT22;501;48.214;11.350;2023-04-05T08:08:23;2.70;29.30
1025;DHT22;501;48.214;11.350;2023-04-05T08:10:49;2.70;29.20
1025;DHT22;501;48.214;11.350;2023-04-05T08:13:15;2.80;29.00
1025;DHT22;501;48.214;11.350;2023-04-05T08:15:41;2.90;28.80
1025;DHT22;501;48.214;11.350;2023-04-05T08:18:06;3.00;28.50
1025;DHT22;501;48.214;11.350;2023-04-05T08:20:32;3.00;28.50
1025;DHT22;501;48.214;11.350;2023-04-05T08:23:03;3.10;28.20
1025;DHT22;501;48.214;11.350;2023-04-05T08:25:29;3.20;28.40
1025;DHT22;501;48.214;11.350;2023-04-05T08:27:55;3.20;28.20
1025;DHT22;501;48.214;11.350;2023-04-05T08:30:21;3.30;27.60
1025;DHT22;501;48.214;11.350;2023-04-05T08:32:47;3.30;27.50
1025;DHT22;501;48.214;11.350;2023-04-05T08:35:13;3.30;27.50
1025;DHT22;501;48.214;11.350;2023-04-05T08:37:39;3.30;27.90
1025;DHT22;501;48.214;11.350;2023-04-05T08:40:05;3.40;27.40
1025;DHT22;501;48.214;11.350;2023-04-05T08:42:41;3.40;27.40
1025;DHT22;501;48.214;11.350;2023-04-05T08:45:09;3.50;27.50
1025;DHT22;501;48.214;11.350;2023-04-05T08:47:36;3.50;27.40
1025;DHT22;501;48.214;11.350;2023-04-05T08:50:03;3.50;27.40
1025;DHT22;501;48.214;11.350;2023-04-05T08:52:31;3.60;27.50
1025;DHT22;501;48.214;11.350;2023-04-05T08:54:57;3.70;26.50
1025;DHT22;501;48.214;11.350;2023-04-05T08:57:28;3.70;26.20
1025;DHT22;501;48.214;11.350;2023-04-05T08:59:56;3.70;26.60
1025;DHT22;501;48.214;11.350;2023-04-05T09:02:23;3.80;26.20
1025;DHT22;501;48.214;11.350;2023-04-05T09:04:50;3.80;25.70
1025;DHT22;501;48.214;11.350;2023-04-05T09:07:17;3.80;26.00
1025;DHT22;501;48.214;11.350;2023-04-05T09:09:52;3.90;25.60
1025;DHT22;501;48.214;11.350;2023-04-05T09:12:22;3.90;26.10
1025;DHT22;501;48.214;11.350;2023-04-05T09:14:49;4.00;25.40
1025;DHT22;501;48.214;11.350;2023-04-05T09:17:17;4.00;25.20
1025;DHT22;501;48.214;11.350;2023-04-05T09:19:44;4.10;24.60
1025;DHT22;501;48.214;11.350;2023-04-05T09:22:10;4.10;24.70
1025;DHT22;501;48.214;11.350;2023-04-05T09:24:41;4.20;24.50
1025;DHT22;501;48.214;11.350;2023-04-05T09:27:11;4.20;25.30
1025;DHT22;501;48.214;11.350;2023-04-05T09:29:38;4.30;25.50
1025;DHT22;501;48.214;11.350;2023-04-05T09:32:06;4.40;22.80
1025;DHT22;501;48.214;11.350;2023-04-05T09:34:33;4.50;22.40
1025;DHT22;501;48.214;11.350;2023-04-05T09:39:40;4.70;23.20
1025;DHT22;501;48.214;11.350;2023-04-05T09:42:12;4.70;22.20
1025;DHT22;501;48.214;11.350;2023-04-05T09:47:18;4.90;23.00
1025;DHT22;501;48.214;11.350;2023-04-05T09:49:44;4.90;21.10
1025;DHT22;501;48.214;11.350;2023-04-05T09:52:27;5.00;20.80
1025;DHT22;501;48.214;11.350;2023-04-05T09:54:55;4.90;20.40
1025;DHT22;501;48.214;11.350;2023-04-05T09:57:23;5.00;21.30
1025;DHT22;501;48.214;11.350;2023-04-05T09:59:51;5.00;21.20
1025;DHT22;501;48.214;11.350;2023-04-05T10:02:16;5.10;20.30
1025;DHT22;501;48.214;11.350;2023-04-05T10:04:46;5.20;21.50
1025;DHT22;501;48.214;11.350;2023-04-05T10:07:14;5.30;21.40
1025;DHT22;501;48.214;11.350;2023-04-05T10:09:41;5.40;21.40
1025;DHT22;501;48.214;11.350;2023-04-05T10:12:09;5.40;21.30
1025;DHT22;501;48.214;11.350;2023-04-05T10:14:37;5.50;20.50
1025;DHT22;501;48.214;11.350;2023-04-05T10:17:06;5.50;20.20
1025;DHT22;501;48.214;11.350;2023-04-05T10:19:49;5.60;20.90
1025;DHT22;501;48.214;11.350;2023-04-05T10:22:29;5.50;20.70
1025;DHT22;501;48.214;11.350;2023-04-05T10:25:12;5.50;21.50
1025;DHT22;501;48.214;11.350;2023-04-05T10:28:04;5.40;20.80
1025;DHT22;501;48.214;11.350;2023-04-05T10:30:35;5.50;20.90
1025;DHT22;501;48.214;11.350;2023-04-05T10:33:20;5.40;20.40
1025;DHT22;501;48.214;11.350;2023-04-05T10:38:28;5.40;20.50
1025;DHT22;501;48.214;11.350;2023-04-05T10:41:01;5.40;21.00
1025;DHT22;501;48.214;11.350;2023-04-05T10:43:28;5.40;20.70
1025;DHT22;501;48.214;11.350;2023-04-05T10:45:56;5.50;21.30
1025;DHT22;501;48.214;11.350;2023-04-05T10:51:04;5.60;20.80
1025;DHT22;501;48.214;11.350;2023-04-05T10:53:30;5.70;20.30
1025;DHT22;501;48.214;11.350;2023-04-05T10:56:00;5.70;20.30
1025;DHT22;501;48.214;11.350;2023-04-05T10:58:28;5.80;20.30
1025;DHT22;501;48.214;11.350;2023-04-05T11:00:54;5.90;19.10
1025;DHT22;501;48.214;11.350;2023-04-05T11:06:31;6.20;21.30
1025;DHT22;501;48.214;11.350;2023-04-05T11:09:10;6.40;20.90
1025;DHT22;501;48.214;11.350;2023-04-05T11:11:41;6.60;19.90
1025;DHT22;501;48.214;11.350;2023-04-05T11:14:20;6.60;19.30
1025;DHT22;501;48.214;11.350;2023-04-05T11:16:48;6.70;18.70
1025;DHT22;501;48.214;11.350;2023-04-05T11:19:17;6.70;18.60
1025;DHT22;501;48.214;11.350;2023-04-05T11:21:42;6.70;17.30
1025;DHT22;501;48.214;11.350;2023-04-05T11:24:13;6.70;17.10
1025;DHT22;501;48.214;11.350;2023-04-05T11:29:09;6.50;17.40
1025;DHT22;501;48.214;11.350;2023-04-05T11:31:35;6.50;18.70
1025;DHT22;501;48.214;11.350;2023-04-05T11:34:23;6.60;18.40
1025;DHT22;501;48.214;11.350;2023-04-05T11:36:48;6.60;18.50
1025;DHT22;501;48.214;11.350;2023-04-05T11:44:18;6.50;16.70
1025;DHT22;501;48.214;11.350;2023-04-05T11:46:48;6.50;19.50
1025;DHT22;501;48.214;11.350;2023-04-05T11:49:14;6.50;19.30
1025;DHT22;501;48.214;11.350;2023-04-05T11:51:40;6.60;19.20
1025;DHT22;501;48.214;11.350;2023-04-05T11:54:09;6.60;18.60
1025;DHT22;501;48.214;11.350;2023-04-05T11:56:35;6.70;18.40
1025;DHT22;501;48.214;11.350;2023-04-05T11:59:00;6.80;17.70
1025;DHT22;501;48.214;11.350;2023-04-05T12:01:26;6.80;17.90
1025;DHT22;501;48.214;11.350;2023-04-05T12:03:53;7.00;18.60
1025;DHT22;501;48.214;11.350;2023-04-05T12:06:23;7.20;17.70
1025;DHT22;501;48.214;11.350;2023-04-05T12:08:49;7.40;17.20
1025;DHT22;501;48.214;11.350;2023-04-05T12:11:35;7.60;18.00
1025;DHT22;501;48.214;11.350;2023-04-05T12:14:05;7.90;19.80
1025;DHT22;501;48.214;11.350;2023-04-05T12:16:30;8.40;19.40
1025;DHT22;501;48.214;11.350;2023-04-05T12:18:57;8.80;19.30
1025;DHT22;501;48.214;11.350;2023-04-05T12:21:23;9.30;18.70
1025;DHT22;501;48.214;11.350;2023-04-05T12:23:51;9.80;17.70
1025;DHT22;501;48.214;11.350;2023-04-05T12:26:17;10.30;15.90
1025;DHT22;501;48.214;11.350;2023-04-05T12:28:49;10.70;15.00
1025;DHT22;501;48.214;11.350;2023-04-05T12:31:16;11.00;14.00
1025;DHT22;501;48.214;11.350;2023-04-05T12:33:42;11.30;15.10
1025;DHT22;501;48.214;11.350;2023-04-05T12:36:08;11.60;14.10
1025;DHT22;501;48.214;11.350;2023-04-05T12:38:36;11.70;13.60
1025;DHT22;501;48.214;11.350;2023-04-05T12:41:02;11.80;13.10
1025;DHT22;501;48.214;11.350;2023-04-05T12:43:38;11.90;13.10
1025;DHT22;501;48.214;11.350;2023-04-05T12:46:17;12.20;13.80
1025;DHT22;501;48.214;11.350;2023-04-05T12:48:43;12.50;11.50
1025;DHT22;501;48.214;11.350;2023-04-05T12:51:15;12.70;12.20
1025;DHT22;501;48.214;11.350;2023-04-05T12:53:45;12.80;10.50
1025;DHT22;501;48.214;11.350;2023-04-05T12:56:12;12.90;11.60
1025;DHT22;501;48.214;11.350;2023-04-05T12:58:39;13.00;12.30
1025;DHT22;501;48.214;11.350;2023-04-05T13:01:05;12.90;13.20
1025;DHT22;501;48.214;11.350;2023-04-05T13:03:31;13.10;14.50
1025;DHT22;501;48.214;11.350;2023-04-05T13:05:57;13.50;13.90
1025;DHT22;501;48.214;11.350;2023-04-05T13:08:25;14.00;13.20
1025;DHT22;501;48.214;11.350;2023-04-05T13:10:52;14.40;12.50
1025;DHT22;501;48.214;11.350;2023-04-05T13:13:18;14.80;11.90
1025;DHT22;501;48.214;11.350;2023-04-05T13:15:47;14.90;11.30
1025;DHT22;501;48.214;11.350;2023-04-05T13:18:13;14.80;10.30
1025;DHT22;501;48.214;11.350;2023-04-05T13:20:42;14.60;11.70
1025;DHT22;501;48.214;11.350;2023-04-05T13:23:09;14.50;10.30
1025;DHT22;501;48.214;11.350;2023-04-05T13:25:42;14.60;10.90
1025;DHT22;501;48.214;11.350;2023-04-05T13:28:08;14.70;10.50
1025;DHT22;501;48.214;11.350;2023-04-05T13:30:34;14.80;11.10
1025;DHT22;501;48.214;11.350;2023-04-05T13:32:59;14.80;10.40
1025;DHT22;501;48.214;11.350;2023-04-05T13:35:25;14.80;9.20
1025;DHT22;501;48.214;11.350;2023-04-05T13:37:51;14.80;10.10
1025;DHT22;501;48.214;11.350;2023-04-05T13:40:17;14.90;11.30
1025;DHT22;501;48.214;11.350;2023-04-05T13:42:42;15.10;10.90
1025;DHT22;501;48.214;11.350;2023-04-05T13:45:08;15.20;9.80
1025;DHT22;501;48.214;11.350;2023-04-05T13:47:35;15.30;10.70
1025;DHT22;501;48.214;11.350;2023-04-05T13:50:01;15.40;9.50
1025;DHT22;501;48.214;11.350;2023-04-05T13:52:27;15.50;10.40
1025;DHT22;501;48.214;11.350;2023-04-05T13:54:53;15.50;8.90
1025;DHT22;501;48.214;11.350;2023-04-05T13:57:22;15.60;8.40
1025;DHT22;501;48.214;11.350;2023-04-05T13:59:47;15.80;9.60
1025;DHT22;501;48.214;11.350;2023-04-05T14:02:13;15.90;9.10
1025;DHT22;501;48.214;11.350;2023-04-05T14:04:40;16.10;9.50
1025;DHT22;501;48.214;11.350;2023-04-05T14:07:05;16.30;8.60
1025;DHT22;501;48.214;11.350;2023-04-05T14:09:34;16.40;8.50
1025;DHT22;501;48.214;11.350;2023-04-05T14:12:00;16.50;9.40
1025;DHT22;501;48.214;11.350;2023-04-05T14:14:27;16.60;10.60
1025;DHT22;501;48.214;11.350;2023-04-05T14:16:53;16.80;9.30
1025;DHT22;501;48.214;11.350;2023-04-05T14:19:19;17.00;8.10
1025;DHT22;501;48.214;11.350;2023-04-05T14:21:45;17.00;7.50
1025;DHT22;501;48.214;11.350;2023-04-05T14:24:11;17.10;7.60
1025;DHT22;501;48.214;11.350;2023-04-05T14:26:37;17.00;7.20
1025;DHT22;501;48.214;11.350;2023-04-05T14:29:03;16.90;8.70
1025;DHT22;501;48.214;11.350;2023-04-05T14:31:29;16.80;8.20
1025;DHT22;501;48.214;11.350;2023-04-05T14:33:54;16.80;9.30
1025;DHT22;501;48.214;11.350;2023-04-05T14:36:20;16.90;9.40
1025;DHT22;501;48.214;11.350;2023-04-05T14:38:46;17.00;8.80
1025;DHT22;501;48.214;11.350;2023-04-05T14:41:12;17.10;6.80
1025;DHT22;501;48.214;11.350;2023-04-05T14:43:38;17.10;8.80
1025;DHT22;501;48.214;11.350;2023-04-05T14:46:04;17.10;8.10
1025;DHT22;501;48.214;11.350;2023-04-05T14:48:29;16.60;7.80
1025;DHT22;501;48.214;11.350;2023-04-05T14:50:57;16.00;8.00
1025;DHT22;501;48.214;11.350;2023-04-05T14:53:24;15.60;8.00
1025;DHT22;501;48.214;11.350;2023-04-05T14:55:49;15.40;8.30
1025;DHT22;501;48.214;11.350;2023-04-05T14:58:15;15.00;7.50
1025;DHT22;501;48.214;11.350;2023-04-05T15:00:44;14.60;9.40
1025;DHT22;501;48.214;11.350;2023-04-05T15:03:12;14.50;8.50
1025;DHT22;501;48.214;11.350;2023-04-05T15:05:37;14.40;7.60
1025;DHT22;501;48.214;11.350;2023-04-05T15:08:03;14.50;9.00
1025;DHT22;501;48.214;11.350;2023-04-05T15:10:29;14.60;7.90
1025;DHT22;501;48.214;11.350;2023-04-05T15:12:55;14.70;8.60
1025;DHT22;501;48.214;11.350;2023-04-05T15:15:21;14.80;8.50
1025;DHT22;501;48.214;11.350;2023-04-05T15:17:46;15.00;7.30
1025;DHT22;501;48.214;11.350;2023-04-05T15:20:12;14.90;7.00
1025;DHT22;501;48.214;11.350;2023-04-05T15:22:38;14.70;8.20
1025;DHT22;501;48.214;11.350;2023-04-05T15:25:07;14.70;8.40
1025;DHT22;501;48.214;11.350;2023-04-05T15:27:33;14.80;8.30
1025;DHT22;501;48.214;11.350;2023-04-05T15:29:59;14.90;8.70
1025;DHT22;501;48.214;11.350;2023-04-05T15:32:25;15.00;8.80
1025;DHT22;501;48.214;11.350;2023-04-05T15:34:51;15.30;7.50
1025;DHT22;501;48.214;11.350;2023-04-05T15:37:16;15.20;6.90
1025;DHT22;501;48.214;11.350;2023-04-05T15:39:42;15.00;6.90
1025;DHT22;501;48.214;11.350;2023-04-05T15:42:08;14.50;7.40
1025;DHT22;501;48.214;11.350;2023-04-05T15:44:33;14.10;7.70
1025;DHT22;501;48.214;11.350;2023-04-05T15:46:59;13.80;8.20
1025;DHT22;501;48.214;11.350;2023-04-05T15:49:25;13.60;9.10
1025;DHT22;501;48.214;11.350;2023-04-05T15:51:51;13.40;9.20
1025;DHT22;501;48.214;11.350;2023-04-05T15:54:16;13.00;9.30
1025;DHT22;501;48.214;11.350;2023-04-05T15:56:47;12.60;9.20
1025;DHT22;501;48.214;11.350;2023-04-05T15:59:13;12.40;9.40
1025;DHT22;501;48.214;11.350;2023-04-05T16:01:39;12.30;10.60
1025;DHT22;501;48.214;11.350;2023-04-05T16:04:05;12.10;10.50
1025;DHT22;501;48.214;11.350;2023-04-05T16:06:30;12.00;9.90
1025;DHT22;501;48.214;11.350;2023-04-05T16:08:56;11.90;10.10
1025;DHT22;501;48.214;11.350;2023-04-05T16:11:22;11.70;10.30
1025;DHT22;501;48.214;11.350;2023-04-05T16:13:49;11.70;10.00
1025;DHT22;501;48.214;11.350;2023-04-05T16:16:15;11.70;10.70
1025;DHT22;501;48.214;11.350;2023-04-05T16:18:42;11.70;10.50
1025;DHT22;501;48.214;11.350;2023-04-05T16:21:08;11.50;9.50
1025;DHT22;501;48.214;11.350;2023-04-05T16:23:33;11.50;10.50
1025;DHT22;501;48.214;11.350;2023-04-05T16:26:00;11.40;9.80
1025;DHT22;501;48.214;11.350;2023-04-05T16:28:27;11.20;9.80
1025;DHT22;501;48.214;11.350;2023-04-05T16:30:52;11.10;10.50
1025;DHT22;501;48.214;11.350;2023-04-05T16:33:18;10.90;10.70
1025;DHT22;501;48.214;11.350;2023-04-05T16:35:44;10.90;11.70
1025;DHT22;501;48.214;11.350;2023-04-05T16:38:09;10.90;11.90
1025;DHT22;501;48.214;11.350;2023-04-05T16:40:35;10.90;13.00
1025;DHT22;501;48.214;11.350;2023-04-05T16:43:01;11.00;13.10
1025;DHT22;501;48.214;11.350;2023-04-05T16:45:27;11.00;12.20
1025;DHT22;501;48.214;11.350;2023-04-05T16:47:53;11.00;11.90